Terminal Aerodrome Forecast
Issued by NWS Charleston, WV

Current Version | Previous Version | Graphics & Text | Print | Product List | Glossary On
Versions: 1 2 3 4 5 6 7 8 9 10 11 12 13 14 15 16 17 18 19 20 21 22 23 24
000
FTUS41 KRLX 061100 RRA
TAFEKN
TAF
KEKN 061145Z 0612/0712 00000KT 3SM BR SCT002
     FM061230 00000KT 5SM BR HZ SCT002
     FM061300 00000KT P6SM FEW090
     FM061700 32004KT P6SM VCTS SCT050CB
     FM062300 00000KT P6SM SCT070
     FM070400 00000KT 5SM BR SCT070
     FM070600 00000KT 2SM BR SCT001
     FM070800 00000KT 1/4SM FG VV002=

USA.gov is the U.S. government's official web portal to all federal, state and local government web resources and services.